Map

Track Data

SID SEASON NUMBER BASIN SUBBASIN NAME ISO_TIME NATURE LAT LON WMO_WIND WMO_PRES WMO_AGENCY TRACK_TYPE DIST2LAND LANDFALL IFLAG USA_AGENCY USA_ATCF_ID USA_LAT USA_LON USA_RECORD USA_STATUS USA_WIND USA_PRES USA_SSHS USA_R34_NE USA_R34_SE USA_R34_SW USA_R34_NW USA_R50_NE USA_R50_SE USA_R50_SW USA_R50_NW USA_R64_NE USA_R64_SE USA_R64_SW USA_R64_NW USA_POCI USA_ROCI USA_RMW USA_EYE TOKYO_LAT TOKYO_LON TOKYO_GRADE TOKYO_WIND TOKYO_PRES TOKYO_R50_DIR TOKYO_R50_LONG TOKYO_R50_SHORT TOKYO_R30_DIR TOKYO_R30_LONG TOKYO_R30_SHORT TOKYO_LAND CMA_LAT CMA_LON CMA_CAT CMA_WIND CMA_PRES HKO_LAT HKO_LON HKO_CAT HKO_WIND HKO_PRES NEWDELHI_LAT NEWDELHI_LON NEWDELHI_GRADE NEWDELHI_WIND NEWDELHI_PRES NEWDELHI_CI NEWDELHI_DP NEWDELHI_POCI REUNION_LAT REUNION_LON REUNION_TYPE REUNION_WIND REUNION_PRES REUNION_TNUM REUNION_CI REUNION_RMW REUNION_R34_NE REUNION_R34_SE REUNION_R34_SW REUNION_R34_NW REUNION_R50_NE REUNION_R50_SE REUNION_R50_SW REUNION_R50_NW REUNION_R64_NE REUNION_R64_SE REUNION_R64_SW REUNION_R64_NW BOM_LAT BOM_LON BOM_TYPE BOM_WIND BOM_PRES BOM_TNUM BOM_CI BOM_RMW BOM_R34_NE BOM_R34_SE BOM_R34_SW BOM_R34_NW BOM_R50_NE BOM_R50_SE BOM_R50_SW BOM_R50_NW BOM_R64_NE BOM_R64_SE BOM_R64_SW BOM_R64_NW BOM_ROCI BOM_POCI BOM_EYE BOM_POS_METHOD BOM_PRES_METHOD NADI_LAT NADI_LON NADI_CAT NADI_WIND NADI_PRES WELLINGTON_LAT WELLINGTON_LON WELLINGTON_WIND WELLINGTON_PRES DS824_LAT DS824_LON DS824_STAGE DS824_WIND DS824_PRES TD9636_LAT TD9636_LON TD9636_STAGE TD9636_WIND TD9636_PRES TD9635_LAT TD9635_LON TD9635_WIND TD9635_PRES TD9635_ROCI NEUMANN_LAT NEUMANN_LON NEUMANN_CLASS NEUMANN_WIND NEUMANN_PRES MLC_LAT MLC_LON MLC_CLASS MLC_WIND MLC_PRES USA_GUST BOM_GUST BOM_GUST_PER REUNION_GUST REUNION_GUST_PER USA_SEAHGT USA_SEARAD_NE USA_SEARAD_SE USA_SEARAD_SW USA_SEARAD_NW STORM_SPEED STORM_DIR
1950286N16276 1950 92 NA CS KING 1950-10-13 06:00:00 TS 16.0000 -84.2000 25 hurdat_atl main 24 24 O_____________ hurdat_atl AL111950 16.0000 -84.2000 TD 25 -1 3 90
1950286N16276 1950 92 NA CS KING 1950-10-13 09:00:00 TS 16.0000 -84.0300 main 39 39 P_____________ AL111950 16.0000 -84.0300 TD 25 -1 3 90
1950286N16276 1950 92 NA CS KING 1950-10-13 12:00:00 TS 16.0000 -83.9000 25 hurdat_atl main 46 46 O_____________ hurdat_atl AL111950 16.0000 -83.9000 TD 25 -1 2 90
1950286N16276 1950 92 NA CS KING 1950-10-13 15:00:00 TS 16.0000 -83.8350 main 49 49 P_____________ AL111950 16.0000 -83.8350 TD 25 -1 1 90
1950286N16276 1950 92 NA CS KING 1950-10-13 18:00:00 TS 16.0000 -83.8000 25 hurdat_atl main 49 49 O_____________ hurdat_atl AL111950 16.0000 -83.8000 TD 25 -1 1 95
1950286N16276 1950 92 NA CS KING 1950-10-13 21:00:00 TS 15.9925 -83.7500 main 55 55 P_____________ AL111950 15.9925 -83.7500 TD 27 -1 1 90
1950286N16276 1950 92 NA CS KING 1950-10-14 00:00:00 TS 16.0000 -83.7000 30 hurdat_atl main 55 55 O_____________ hurdat_atl AL111950 16.0000 -83.7000 TD 30 -1 1 63
1950286N16276 1950 92 NA CS KING 1950-10-14 03:00:00 TS 16.0425 -83.6500 main 61 55 P_____________ AL111950 16.0425 -83.6500 TD 30 -1 1 43
1950286N16276 1950 92 NA CS KING 1950-10-14 06:00:00 TS 16.1000 -83.6000 30 hurdat_atl main 70 70 O_____________ hurdat_atl AL111950 16.1000 -83.6000 TD 30 -1 1 38
1950286N16276 1950 92 NA CS KING 1950-10-14 09:00:00 TS 16.1500 -83.5575 main 79 70 P_____________ AL111950 16.1500 -83.5575 TD 30 -1 1 43
1950286N16276 1950 92 NA CS KING 1950-10-14 12:00:00 TS 16.2000 -83.5000 30 hurdat_atl main 85 85 O_____________ hurdat_atl AL111950 16.2000 -83.5000 TD 30 -1 1 53
1950286N16276 1950 92 NA CS KING 1950-10-14 15:00:00 TS 16.2349 -83.4374 main 92 92 P_____________ AL111950 16.2349 -83.4374 TD 32 -1 2 63
1950286N16276 1950 92 NA CS KING 1950-10-14 18:00:00 TS 16.3000 -83.3000 35 hurdat_atl main 108 108 O_____________ hurdat_atl AL111950 16.3000 -83.3000 TS 35 0 4 63
1950286N16276 1950 92 NA CS KING 1950-10-14 21:00:00 TS 16.4350 -83.0375 main 130 130 P_____________ AL111950 16.4350 -83.0375 TS 37 0 7 62
1950286N16276 1950 92 NA CS KING 1950-10-15 00:00:00 TS 16.6000 -82.7000 40 hurdat_atl main 163 163 O_____________ hurdat_atl AL111950 16.6000 -82.7000 TS 40 0 7 63
1950286N16276 1950 92 NA CS KING 1950-10-15 03:00:00 TS 16.7498 -82.3799 main 189 189 P_____________ AL111950 16.7498 -82.3799 TS 42 0 7 66
1950286N16276 1950 92 NA CS KING 1950-10-15 06:00:00 TS 16.9000 -82.0000 45 hurdat_atl main 233 233 O_____________ hurdat_atl AL111950 16.9000 -82.0000 TS 45 0 9 71
1950286N16276 1950 92 NA CS KING 1950-10-15 09:00:00 TS 17.0350 -81.5223 main 278 278 P_____________ AL111950 17.0350 -81.5223 TS 47 0 10 73
1950286N16276 1950 92 NA CS KING 1950-10-15 12:00:00 TS 17.2000 -81.0000 50 hurdat_atl main 297 239 O_____________ hurdat_atl AL111950 17.2000 -81.0000 TS 50 0 11 69
1950286N16276 1950 92 NA CS KING 1950-10-15 15:00:00 TS 17.4200 -80.4775 main 239 178 P_____________ AL111950 17.4200 -80.4775 TS 52 0 11 62
1950286N16276 1950 92 NA CS KING 1950-10-15 18:00:00 TS 17.7000 -80.0000 55 992 hurdat_atl main 178 128 O_____________ hurdat_atl AL111950 17.7000 -80.0000 TS 55 992 0 11 53
1950286N16276 1950 92 NA CS KING 1950-10-15 21:00:00 TS 18.0499 -79.5976 main 128 95 P_____________ AL111950 18.0499 -79.5976 TS 60 0 10 44
1950286N16276 1950 92 NA CS KING 1950-10-16 00:00:00 TS 18.4000 -79.3000 65 hurdat_atl main 97 86 O_____________ hurdat_atl AL111950 18.4000 -79.3000 HU 65 1 8 36
1950286N16276 1950 92 NA CS KING 1950-10-16 03:00:00 TS 18.6724 -79.1198 main 90 86 P_____________ AL111950 18.6724 -79.1198 HU 67 1 6 30
1950286N16276 1950 92 NA CS KING 1950-10-16 06:00:00 TS 18.9000 -79.0000 70 hurdat_atl main 92 92 O_____________ hurdat_atl AL111950 18.9000 -79.0000 HU 70 1 5 31
1950286N16276 1950 92 NA CS KING 1950-10-16 09:00:00 TS 19.0850 -78.8573 main 100 94 P_____________ AL111950 19.0850 -78.8573 HU 72 1 5 35
1950286N16276 1950 92 NA CS KING 1950-10-16 12:00:00 TS 19.3000 -78.7000 75 985 hurdat_atl main 109 86 O_____________ hurdat_atl AL111950 19.3000 -78.7000 HU 75 985 1 6 37
1950286N16276 1950 92 NA CS KING 1950-10-16 15:00:00 TS 19.5695 -78.4708 main 86 62 P_____________ AL111950 19.5695 -78.4708 HU 77 1 8 28
1950286N16276 1950 92 NA CS KING 1950-10-16 18:00:00 TS 20.0000 -78.3000 80 hurdat_atl main 66 22 O_____________ hurdat_atl AL111950 20.0000 -78.3000 HU 80 1 12 7
1950286N16276 1950 92 NA CS KING 1950-10-16 21:00:00 TS 20.7136 -78.3128 main 22 0 P_____________ AL111950 20.7136 -78.3128 HU 80 1 14 0
1950286N16276 1950 92 NA CS KING 1950-10-16 22:00:00 TS 20.9000 -78.3000 80 hurdat_atl main 0 0 O_____________ hurdat_atl AL111950 20.9000 -78.3000 L HU 80 1 8 15
1950286N16276 1950 92 NA NA KING 1950-10-17 00:00:00 TS 21.1000 -78.2000 75 hurdat_atl main 0 0 O_____________ hurdat_atl AL111950 21.1000 -78.2000 HU 75 1 9 10
1950286N16276 1950 92 NA NA KING 1950-10-17 03:00:00 TS 21.5982 -78.1649 main 0 0 P_____________ AL111950 21.5982 -78.1649 HU 70 1 11 355
1950286N16276 1950 92 NA NA KING 1950-10-17 06:00:00 TS 22.2000 -78.3000 65 hurdat_atl main 10 0 O_____________ hurdat_atl AL111950 22.2000 -78.3000 HU 65 1 12 339
1950286N16276 1950 92 NA NA KING 1950-10-17 09:00:00 TS 22.7227 -78.6195 main 44 44 P_____________ AL111950 22.7227 -78.6195 HU 67 1 12 327
1950286N16276 1950 92 NA NA KING 1950-10-17 12:00:00 TS 23.2000 -79.0000 70 988 hurdat_atl main 83 83 O_____________ hurdat_atl AL111950 23.2000 -79.0000 HU 70 988 1 11 326
1950286N16276 1950 92 NA NA KING 1950-10-17 15:00:00 TS 23.6224 -79.2802 main 105 105 P_____________ AL111950 23.6224 -79.2802 HU 80 1 9 330
1950286N16276 1950 92 NA NA KING 1950-10-17 18:00:00 TS 24.0000 -79.5000 90 hurdat_atl main 121 115 O_____________ hurdat_atl AL111950 24.0000 -79.5000 HU 90 2 8 334
1950286N16276 1950 92 NA NA KING 1950-10-17 21:00:00 TS 24.3160 -79.6503 main 113 75 P_____________ AL111950 24.3160 -79.6503 HU 97 3 8 339
1950286N16276 1950 92 NA NA KING 1950-10-18 00:00:00 TS 24.7000 -79.8000 105 hurdat_atl main 75 40 O_____________ hurdat_atl AL111950 24.7000 -79.8000 HU 105 3 10 341
1950286N16276 1950 92 NA NA KING 1950-10-18 03:00:00 TS 25.2816 -80.0192 main 37 0 P_____________ AL111950 25.2816 -80.0192 HU 110 3 13 340
1950286N16276 1950 92 NA NA KING 1950-10-18 05:00:00 TS 25.7000 -80.2000 115 955 hurdat_atl main 0 0 O_____________ hurdat_atl AL111950 25.7000 -80.2000 L HU 115 955 4 13 338
1950286N16276 1950 92 NA NA KING 1950-10-18 06:00:00 TS 25.9000 -80.3000 115 955 hurdat_atl main 0 0 O_____________ hurdat_atl AL111950 25.9000 -80.3000 HU 115 955 4 13 333
1950286N16276 1950 92 NA NA KING 1950-10-18 09:00:00 TS 26.4821 -80.6486 main 0 0 P_____________ AL111950 26.4821 -80.6486 HU 97 965 3 14 332
1950286N16276 1950 92 NA NA KING 1950-10-18 12:00:00 TS 27.1000 -81.0000 80 975 hurdat_atl main 0 0 O_____________ hurdat_atl AL111950 27.1000 -81.0000 HU 80 975 1 15 339
1950286N16276 1950 92 NA NA KING 1950-10-18 15:00:00 TS 27.8347 -81.2360 main 0 0 P_____________ AL111950 27.8347 -81.2360 HU 75 979 1 16 344
1950286N16276 1950 92 NA NA KING 1950-10-18 18:00:00 TS 28.6000 -81.5000 70 983 hurdat_atl main 0 0 O_____________ hurdat_atl AL111950 28.6000 -81.5000 HU 70 983 1 16 339
1950286N16276 1950 92 NA NA KING 1950-10-18 21:00:00 TS 29.3299 -81.9050 main 0 0 P_____________ AL111950 29.3299 -81.9050 HU 67 986 1 16 331
1950286N16276 1950 92 NA NA KING 1950-10-19 00:00:00 TS 30.0000 -82.4000 65 989 hurdat_atl main 0 0 O_____________ hurdat_atl AL111950 30.0000 -82.4000 HU 65 989 1 16 325
1950286N16276 1950 92 NA NA KING 1950-10-19 03:00:00 TS 30.6100 -82.9424 main 0 0 P_____________ AL111950 30.6100 -82.9424 HU 55 990 0 15 319
1950286N16276 1950 92 NA NA KING 1950-10-19 06:00:00 TS 31.1000 -83.5000 45 992 hurdat_atl main 0 0 O_____________ hurdat_atl AL111950 31.1000 -83.5000 TS 45 992 0 13 312
1950286N16276 1950 92 NA NA KING 1950-10-19 09:00:00 TS 31.4524 -84.0232 main 0 0 P_____________ AL111950 31.4524 -84.0232 TS 40 994 0 10 305
1950286N16276 1950 92 NA NA KING 1950-10-19 12:00:00 TS 31.7000 -84.5000 35 996 hurdat_atl main 0 0 O_____________ hurdat_atl AL111950 31.7000 -84.5000 TS 35 996 0 9 301
1950286N16276 1950 92 NA NA KING 1950-10-19 15:00:00 TS 31.9148 -84.9229 main 0 0 P_____________ AL111950 31.9148 -84.9229 TS 30 997 -1 8 300
1950286N16276 1950 92 NA NA KING 1950-10-19 18:00:00 TS 32.1000 -85.3000 25 999 hurdat_atl main 0 0 O_____________ hurdat_atl AL111950 32.1000 -85.3000 TD 25 999 -1 7 301
1950286N16276 1950 92 NA NA KING 1950-10-19 21:00:00 TS 32.2999 -85.6726 main 0 0 P_____________ AL111950 32.2999 -85.6726 TD 22 999 -1 7 304
1950286N16276 1950 92 NA NA KING 1950-10-20 00:00:00 TS 32.5000 -86.0000 20 1000 hurdat_atl main 0 0 O_____________ hurdat_atl AL111950 32.5000 -86.0000 TD 20 1000 -1 6 309
1950286N16276 1950 92 NA NA KING 1950-10-20 03:00:00 TS 32.7000 -86.2673 main 0 0 P_____________ AL111950 32.7000 -86.2673 TD 20 1001 -1 6 314
1950286N16276 1950 92 NA NA KING 1950-10-20 06:00:00 TS 32.9000 -86.5000 20 1002 hurdat_atl main 0 O_____________ hurdat_atl AL111950 32.9000 -86.5000 TD 20 1002 -1 6 316

About IBTrACS Database

This database is a web-friendly format of International Best Track Archive for Climate Stewardship (IBTrACS), a global best track data archive curated by NOAA dating back to 1842.

Updated: 2021-12-08